My Meet Scores
Cathriona Heneghan, Oak Lawn Pirouette's Gymnastics - MyMeetScores.com
Top100 | Top Teams | Upcoming Meets | Completed Meets | Latest | Add Scores | Help| Support | Bookmark and Share

Cathriona Heneghan, Oak Lawn Pirouette's Gymnastics
Personal Bests
LevelVault BarsBeamFloorAA
58.5008.550 9.1008.40033.550
68.9258.500 9.4259.27535.950
XP9.1759.200 9.2009.27536.775
Meet Scores
Date Meet Team Session Level Division Vault Bars Beam Floor AA
2018-04-06 XCEL State Championships Oak Lawn Pirouette's Gymnastics 9 XP Sr C 9.025 16 8.925 8 8.300 17T 8.900 15 35.150 12
2018-02-17 Women's Midwest Open Oak Lawn Pirouette's Gymnastics 05 XP JR B 9.175 3 9.125 3T 9.200 3 9.275 4T 36.775 2
2018-02-01 The Big Chill Oak Lawn Pirouette%27s Gymnastics 2 XP 14 Up 8.725 8 9.200 2T 9.000 3 8.575 8 35.500 4
2018-01-26 2018 UGA Classic Oak Lawn Pirouette's Gymnastics A4 XP Senior 8.600 5 8.100 4 8.925 2 8.600 5 34.225 4
2017-12-14 2017 Women's Hawaiian Pineapple Classic Oak Lawn Pirouette's Gymnastics 1B XP Ages15+ 8.750 6 8.650 3T 9.100 1 8.850 3 35.350 3
2017-11-10 Illinois NAWGJ Judges Cup 2017 Oak Lawn Pirouette's Gymnastics S1 XP All Ages 8.925 7 8.800 3 8.500 6T 8.850 6T 35.075 5
2017-03-23 2017 Illinois Level 6, 7 State Championship Oak Lawn Pirouette's Gymnastics 11 6 Sr D 8.925 23T 8.500 22T 9.050 15T 9.100 19T 35.575 20
2017-02-24 Kinetic Classic Oak Lawn Pirouette's Gymnastics 9 6 All Ages 8.650 42T 8.450 45T 9.425 12T 9.025 36 35.550 37
2017-02-02 The Big Chill Oak Lawn Pirouette's Gymnastics 4 6 14 Over 8.850 7 8.500 6 9.375 1 9.225 4 35.950 4T
2017-01-27 2017 UGA Invitational Oak Lawn Pirouette's Gymnastics A7 6 Senior 8.700 11 8.200 9 9.250 5 8.750 8T 34.900 10
2017-01-05 Leenda's Island Adventure Oak Lawn Pirouette's Gymnastics G08 6 13 and Ove 8.750 6 7.675 10 9.050 2 9.175 2 34.650 4
2016-11-11 2016 Illinois Judges Cup Oak Lawn Pirouette's Gymnastics B3 6 13 and Ove 8.525 7 7.900 5 8.900 2 8.900 5T 34.225 4T
2016-02-12 Midwest Twisters Harley Meet Oak Lawn Pirouette's Gymnastics s02 6 14+ yrs 8.600 8 7.450 7 8.325 8T 9.000 4 33.375 8
2016-01-15 2016 Bravo Classic Oak Lawn Pirouette's Gymnastics 4A 6 12+yrs 8.900 29T 7.450 34 7.850 35 9.275 8 33.475 35
2015-12-17 2015 Hawaiian Pineapple Classic Oak Lawn Pirouette's Gymnastics 9B 6 Ages 13+ 8.475 9 7.750 8T 8.150 7 8.850 4 33.225 9
2015-05-02 2015 Illinois Level 6, 7 State Championships Oak Lawn Pirouette's Gymnastics 6 Sr.D 8.425 19 7.500 20 8.350 18 8.550 21 32.825 20
2015-02-27 Elk Grove Gymnastics Invite Oak Lawn Pirouette's Gymnastics 8 6 Jr 12-14 8.350 1 7.500 1 9.250 1 9.050 1 34.150 1
2014-02-21 EGGS Invite Oak Lawn Pirouette's Gymnastics 3 5 11+yrs 8.500 16 7.200 19 8.300 5T 8.400 15 32.400 15
2014-02-15 BIG Dream Classic 2014 Oak Lawn Pirouette's Gymnastics 4B 5 Junior B 8.050 18 6.850 21T 8.675 10 8.050 21 31.625 19
2013-04-26 2013 Illinois Level 5 and Xcel State Meet Oak Lawn Pirouette's Gymnastics 5 Sr.D 8.400 32 8.150 33 8.600 21 8.250 33 33.400 32
2013-03-01 Spring Hill Elgin Invitational Oak Lawn Pirouette's Gymnastics 6 5 Sr 8.100 22 8.050 24 9.100 14 8.300 26 33.550 24
2013-02-23 EGGS Invite Oak Lawn Pirouette's Gymnastics 5 11+ 7.850 21 8.550 13 8.825 6 8.225 16 33.450 16
2013-02-15 Midwest Twisters HarleyDavidson Invite Oak Lawn Pirouette's Gymnastics 8OR 5 11+ yrs. 7.900 15 8.100 12 8.825 10 7.900 13 32.725 12T
2012-12-13 2012 Hawaiin Pineapple Classic Oak Lawn Pirouette's Gymnastics B5 5 ages 12+ 8.000 9 7.850 9T 8.600 6T 7.400 11 31.850 9

www.lazysuits.com